sensor_id;sensor_type;location;lat;lon;timestamp;pressure;altitude;pressure_sealevel;temperature;humidity
70555;BME280;58104;52.744;15.242;2023-08-12T00:00:24;101394.43;;;25.20;45.35
70555;BME280;58104;52.744;15.242;2023-08-12T00:02:49;101390.97;;;25.15;45.27
70555;BME280;58104;52.744;15.242;2023-08-12T00:05:15;101387.46;;;25.04;45.38
70555;BME280;58104;52.744;15.242;2023-08-12T00:07:40;101382.60;;;25.08;45.52
70555;BME280;58104;52.744;15.242;2023-08-12T00:10:06;101379.05;;;25.11;45.47
70555;BME280;58104;52.744;15.242;2023-08-12T00:12:31;101377.61;;;25.22;45.40
70555;BME280;58104;52.744;15.242;2023-08-12T00:14:56;101380.95;;;25.11;45.56
70555;BME280;58104;52.744;15.242;2023-08-12T00:17:21;101379.88;;;25.11;45.63
70555;BME280;58104;52.744;15.242;2023-08-12T00:19:47;101380.20;;;25.14;45.72
70555;BME280;58104;52.744;15.242;2023-08-12T00:22:12;101377.06;;;25.03;45.84
70555;BME280;58104;52.744;15.242;2023-08-12T00:24:37;101372.95;;;25.00;45.96
70555;BME280;58104;52.744;15.242;2023-08-12T00:27:03;101366.60;;;25.07;45.96
70555;BME280;58104;52.744;15.242;2023-08-12T00:29:28;101362.63;;;24.99;46.03
70555;BME280;58104;52.744;15.242;2023-08-12T00:31:53;101360.59;;;25.12;46.11
70555;BME280;58104;52.744;15.242;2023-08-12T00:34:18;101358.07;;;25.04;46.13
70555;BME280;58104;52.744;15.242;2023-08-12T00:36:43;101361.02;;;25.03;46.16
70555;BME280;58104;52.744;15.242;2023-08-12T00:39:09;101363.76;;;25.04;46.25
70555;BME280;58104;52.744;15.242;2023-08-12T00:41:34;101362.78;;;25.11;46.15
70555;BME280;58104;52.744;15.242;2023-08-12T00:44:00;101362.55;;;25.15;46.17
70555;BME280;58104;52.744;15.242;2023-08-12T00:46:25;101366.86;;;24.94;46.40
70555;BME280;58104;52.744;15.242;2023-08-12T00:48:50;101364.59;;;24.94;46.57
70555;BME280;58104;52.744;15.242;2023-08-12T00:51:16;101359.34;;;24.91;46.71
70555;BME280;58104;52.744;15.242;2023-08-12T00:53:41;101357.56;;;24.90;46.70
70555;BME280;58104;52.744;15.242;2023-08-12T00:56:06;101354.26;;;24.94;46.62
70555;BME280;58104;52.744;15.242;2023-08-12T00:58:32;101353.50;;;25.04;46.38
70555;BME280;58104;52.744;15.242;2023-08-12T01:00:57;101353.43;;;25.18;46.29
70555;BME280;58104;52.744;15.242;2023-08-12T01:03:22;101352.06;;;25.13;46.31
70555;BME280;58104;52.744;15.242;2023-08-12T01:05:48;101348.44;;;25.08;45.90
70555;BME280;58104;52.744;15.242;2023-08-12T01:08:13;101344.46;;;24.96;45.56
70555;BME280;58104;52.744;15.242;2023-08-12T01:10:44;101342.08;;;24.83;45.90
70555;BME280;58104;52.744;15.242;2023-08-12T01:13:13;101341.19;;;24.89;46.02
70555;BME280;58104;52.744;15.242;2023-08-12T01:15:29;101337.20;;;24.92;46.11
70555;BME280;58104;52.744;15.242;2023-08-12T01:17:56;101340.59;;;24.93;46.13
70555;BME280;58104;52.744;15.242;2023-08-12T01:20:21;101341.81;;;24.86;46.30
70555;BME280;58104;52.744;15.242;2023-08-12T01:22:45;101340.79;;;24.79;46.33
70555;BME280;58104;52.744;15.242;2023-08-12T01:25:10;101340.04;;;24.73;46.50
70555;BME280;58104;52.744;15.242;2023-08-12T01:27:36;101343.54;;;24.71;46.50
70555;BME280;58104;52.744;15.242;2023-08-12T01:30:02;101346.16;;;24.78;46.49
70555;BME280;58104;52.744;15.242;2023-08-12T01:32:31;101346.08;;;24.85;46.48
70555;BME280;58104;52.744;15.242;2023-08-12T01:35:00;101344.56;;;24.84;46.50
70555;BME280;58104;52.744;15.242;2023-08-12T01:37:23;101344.21;;;24.72;46.67
70555;BME280;58104;52.744;15.242;2023-08-12T01:39:43;101346.77;;;24.76;46.61
70555;BME280;58104;52.744;15.242;2023-08-12T01:42:08;101348.35;;;24.69;46.92
70555;BME280;58104;52.744;15.242;2023-08-12T01:44:33;101345.80;;;24.60;47.17
70555;BME280;58104;52.744;15.242;2023-08-12T01:46:59;101343.57;;;24.62;47.17
70555;BME280;58104;52.744;15.242;2023-08-12T01:49:24;101339.22;;;24.48;47.37
70555;BME280;58104;52.744;15.242;2023-08-12T01:51:49;101338.41;;;24.52;47.45
70555;BME280;58104;52.744;15.242;2023-08-12T01:54:15;101335.18;;;24.53;47.45
70555;BME280;58104;52.744;15.242;2023-08-12T01:56:40;101334.09;;;24.39;47.56
70555;BME280;58104;52.744;15.242;2023-08-12T01:59:05;101333.72;;;24.46;47.57
70555;BME280;58104;52.744;15.242;2023-08-12T02:01:30;101337.27;;;24.49;47.65
70555;BME280;58104;52.744;15.242;2023-08-12T02:03:56;101345.62;;;24.39;47.82
70555;BME280;58104;52.744;15.242;2023-08-12T02:06:21;101343.89;;;24.43;47.91
70555;BME280;58104;52.744;15.242;2023-08-12T02:08:46;101338.03;;;24.41;47.99
70555;BME280;58104;52.744;15.242;2023-08-12T02:11:12;101336.44;;;24.50;48.02
70555;BME280;58104;52.744;15.242;2023-08-12T02:13:37;101337.41;;;24.41;48.03
70555;BME280;58104;52.744;15.242;2023-08-12T02:16:03;101338.24;;;24.34;48.09
70555;BME280;58104;52.744;15.242;2023-08-12T02:18:28;101337.24;;;24.44;48.18
70555;BME280;58104;52.744;15.242;2023-08-12T02:20:53;101334.40;;;24.43;48.27
70555;BME280;58104;52.744;15.242;2023-08-12T02:23:18;101333.08;;;24.41;48.40
70555;BME280;58104;52.744;15.242;2023-08-12T02:25:43;101328.59;;;24.41;48.45
70555;BME280;58104;52.744;15.242;2023-08-12T02:28:09;101325.27;;;24.35;48.60
70555;BME280;58104;52.744;15.242;2023-08-12T02:30:34;101322.80;;;24.40;48.45
70555;BME280;58104;52.744;15.242;2023-08-12T02:33:00;101325.08;;;24.37;48.51
70555;BME280;58104;52.744;15.242;2023-08-12T02:35:25;101323.57;;;24.43;48.43
70555;BME280;58104;52.744;15.242;2023-08-12T02:37:50;101320.10;;;24.35;48.60
70555;BME280;58104;52.744;15.242;2023-08-12T02:40:16;101318.83;;;24.46;48.67
70555;BME280;58104;52.744;15.242;2023-08-12T02:42:41;101316.90;;;24.48;48.70
70555;BME280;58104;52.744;15.242;2023-08-12T02:45:07;101320.18;;;24.47;48.75
70555;BME280;58104;52.744;15.242;2023-08-12T02:47:32;101320.19;;;24.45;48.76
70555;BME280;58104;52.744;15.242;2023-08-12T02:49:57;101317.26;;;24.45;48.81
70555;BME280;58104;52.744;15.242;2023-08-12T02:52:22;101314.77;;;24.38;48.96
70555;BME280;58104;52.744;15.242;2023-08-12T02:54:48;101310.67;;;24.39;49.02
70555;BME280;58104;52.744;15.242;2023-08-12T02:57:13;101309.89;;;24.31;49.21
70555;BME280;58104;52.744;15.242;2023-08-12T02:59:38;101311.15;;;24.30;49.25
70555;BME280;58104;52.744;15.242;2023-08-12T03:02:04;101311.02;;;24.26;49.32
70555;BME280;58104;52.744;15.242;2023-08-12T03:04:29;101310.85;;;24.22;49.42
70555;BME280;58104;52.744;15.242;2023-08-12T03:06:54;101308.72;;;24.19;49.46
70555;BME280;58104;52.744;15.242;2023-08-12T03:09:20;101303.78;;;24.25;49.46
70555;BME280;58104;52.744;15.242;2023-08-12T03:11:45;101302.15;;;24.15;49.58
70555;BME280;58104;52.744;15.242;2023-08-12T03:14:10;101306.88;;;24.12;49.59
70555;BME280;58104;52.744;15.242;2023-08-12T03:16:36;101306.16;;;24.09;49.69
70555;BME280;58104;52.744;15.242;2023-08-12T03:19:01;101304.03;;;24.13;49.61
70555;BME280;58104;52.744;15.242;2023-08-12T03:21:26;101301.15;;;24.19;49.58
70555;BME280;58104;52.744;15.242;2023-08-12T03:23:52;101298.74;;;24.11;49.64
70555;BME280;58104;52.744;15.242;2023-08-12T03:26:17;101294.61;;;24.13;49.61
70555;BME280;58104;52.744;15.242;2023-08-12T03:28:42;101293.88;;;24.19;49.62
70555;BME280;58104;52.744;15.242;2023-08-12T03:31:08;101288.65;;;24.15;49.77
70555;BME280;58104;52.744;15.242;2023-08-12T03:33:33;101285.95;;;24.08;49.78
70555;BME280;58104;52.744;15.242;2023-08-12T03:35:58;101289.95;;;24.09;49.82
70555;BME280;58104;52.744;15.242;2023-08-12T03:38:24;101283.76;;;24.09;49.80
70555;BME280;58104;52.744;15.242;2023-08-12T03:40:49;101278.72;;;24.12;49.72
70555;BME280;58104;52.744;15.242;2023-08-12T03:43:14;101274.25;;;24.18;49.61
70555;BME280;58104;52.744;15.242;2023-08-12T03:45:40;101270.75;;;24.28;49.49
70555;BME280;58104;52.744;15.242;2023-08-12T03:48:06;101271.56;;;24.23;49.44
70555;BME280;58104;52.744;15.242;2023-08-12T03:50:33;101266.06;;;24.31;49.39
70555;BME280;58104;52.744;15.242;2023-08-12T03:52:55;101265.24;;;24.29;49.44
70555;BME280;58104;52.744;15.242;2023-08-12T03:55:21;101264.37;;;24.29;49.44
70555;BME280;58104;52.744;15.242;2023-08-12T03:57:46;101266.87;;;24.28;49.70
70555;BME280;58104;52.744;15.242;2023-08-12T04:00:12;101264.44;;;24.22;49.70
70555;BME280;58104;52.744;15.242;2023-08-12T04:02:37;101263.22;;;24.21;49.69
70555;BME280;58104;52.744;15.242;2023-08-12T04:05:02;101262.59;;;24.24;49.64
70555;BME280;58104;52.744;15.242;2023-08-12T04:07:28;101257.15;;;24.17;49.65
70555;BME280;58104;52.744;15.242;2023-08-12T04:09:53;101253.73;;;24.21;49.65
70555;BME280;58104;52.744;15.242;2023-08-12T04:12:18;101252.40;;;24.20;49.66
70555;BME280;58104;52.744;15.242;2023-08-12T04:14:44;101248.43;;;24.15;49.87
70555;BME280;58104;52.744;15.242;2023-08-12T04:17:09;101250.19;;;24.24;49.84
70555;BME280;58104;52.744;15.242;2023-08-12T04:19:34;101249.09;;;24.28;49.75
70555;BME280;58104;52.744;15.242;2023-08-12T04:22:00;101244.63;;;24.41;49.58
70555;BME280;58104;52.744;15.242;2023-08-12T04:24:25;101240.85;;;24.32;49.49
70555;BME280;58104;52.744;15.242;2023-08-12T04:26:50;101238.38;;;24.35;49.55
70555;BME280;58104;52.744;15.242;2023-08-12T04:29:16;101235.40;;;24.40;49.42
70555;BME280;58104;52.744;15.242;2023-08-12T04:31:41;101239.68;;;24.36;49.52
70555;BME280;58104;52.744;15.242;2023-08-12T04:34:06;101243.51;;;24.28;49.57
70555;BME280;58104;52.744;15.242;2023-08-12T04:36:32;101242.43;;;24.39;49.59
70555;BME280;58104;52.744;15.242;2023-08-12T04:38:57;101241.41;;;24.24;49.82
70555;BME280;58104;52.744;15.242;2023-08-12T04:41:22;101243.62;;;24.17;50.03
70555;BME280;58104;52.744;15.242;2023-08-12T04:43:48;101239.72;;;24.24;50.05
70555;BME280;58104;52.744;15.242;2023-08-12T04:46:13;101236.08;;;24.18;50.05
70555;BME280;58104;52.744;15.242;2023-08-12T04:48:38;101234.71;;;24.13;50.17
70555;BME280;58104;52.744;15.242;2023-08-12T04:51:04;101237.64;;;24.27;50.15
70555;BME280;58104;52.744;15.242;2023-08-12T04:53:29;101238.94;;;24.29;50.07
70555;BME280;58104;52.744;15.242;2023-08-12T04:55:55;101239.45;;;24.27;49.98
70555;BME280;58104;52.744;15.242;2023-08-12T04:58:20;101234.97;;;24.29;49.92
70555;BME280;58104;52.744;15.242;2023-08-12T05:00:45;101237.74;;;24.31;49.79
70555;BME280;58104;52.744;15.242;2023-08-12T05:03:11;101234.34;;;24.27;49.76
70555;BME280;58104;52.744;15.242;2023-08-12T05:05:36;101237.85;;;24.28;49.77
70555;BME280;58104;52.744;15.242;2023-08-12T05:08:01;101237.99;;;24.33;49.73
70555;BME280;58104;52.744;15.242;2023-08-12T05:10:32;101236.70;;;24.30;49.80
70555;BME280;58104;52.744;15.242;2023-08-12T05:12:52;101235.16;;;24.34;49.69
70555;BME280;58104;52.744;15.242;2023-08-12T05:15:17;101230.64;;;24.32;49.70
70555;BME280;58104;52.744;15.242;2023-08-12T05:17:43;101230.11;;;24.35;49.66
70555;BME280;58104;52.744;15.242;2023-08-12T05:20:09;101235.98;;;24.36;49.63
70555;BME280;58104;52.744;15.242;2023-08-12T05:22:33;101237.48;;;24.32;49.70
70555;BME280;58104;52.744;15.242;2023-08-12T05:24:59;101241.03;;;24.35;49.70
70555;BME280;58104;52.744;15.242;2023-08-12T05:27:24;101244.56;;;24.32;49.73
70555;BME280;58104;52.744;15.242;2023-08-12T05:29:50;101241.63;;;24.32;49.75
70555;BME280;58104;52.744;15.242;2023-08-12T05:32:15;101236.93;;;24.33;49.72
70555;BME280;58104;52.744;15.242;2023-08-12T05:34:40;101241.40;;;24.34;49.69
70555;BME280;58104;52.744;15.242;2023-08-12T05:37:05;101248.12;;;24.32;49.73
70555;BME280;58104;52.744;15.242;2023-08-12T05:39:31;101253.73;;;24.17;49.87
70555;BME280;58104;52.744;15.242;2023-08-12T05:41:56;101252.41;;;24.26;49.90
70555;BME280;58104;52.744;15.242;2023-08-12T05:44:22;101251.89;;;24.23;49.99
70555;BME280;58104;52.744;15.242;2023-08-12T05:46:47;101253.85;;;24.29;49.82
70555;BME280;58104;52.744;15.242;2023-08-12T05:49:12;101249.05;;;24.34;49.71
70555;BME280;58104;52.744;15.242;2023-08-12T05:51:38;101244.95;;;24.44;49.62
70555;BME280;58104;52.744;15.242;2023-08-12T05:54:03;101246.42;;;24.46;49.54
70555;BME280;58104;52.744;15.242;2023-08-12T05:56:28;101242.66;;;24.39;49.58
70555;BME280;58104;52.744;15.242;2023-08-12T05:58:54;101244.78;;;24.43;49.47
70555;BME280;58104;52.744;15.242;2023-08-12T06:01:19;101245.32;;;24.37;49.65
70555;BME280;58104;52.744;15.242;2023-08-12T06:03:44;101242.78;;;24.43;49.45
70555;BME280;58104;52.744;15.242;2023-08-12T06:06:10;101243.65;;;24.43;49.37
70555;BME280;58104;52.744;15.242;2023-08-12T06:08:35;101244.40;;;24.53;49.51
70555;BME280;58104;52.744;15.242;2023-08-12T06:11:00;101243.07;;;24.51;49.28
70555;BME280;58104;52.744;15.242;2023-08-12T06:13:26;101241.49;;;24.52;49.26
70555;BME280;58104;52.744;15.242;2023-08-12T06:15:51;101236.73;;;24.53;49.12
70555;BME280;58104;52.744;15.242;2023-08-12T06:18:17;101237.15;;;24.54;49.22
70555;BME280;58104;52.744;15.242;2023-08-12T06:20:42;101235.56;;;24.45;49.29
70555;BME280;58104;52.744;15.242;2023-08-12T06:23:07;101234.48;;;24.52;49.12
70555;BME280;58104;52.744;15.242;2023-08-12T06:25:32;101230.40;;;24.60;49.14
70555;BME280;58104;52.744;15.242;2023-08-12T06:27:58;101224.67;;;24.58;49.25
70555;BME280;58104;52.744;15.242;2023-08-12T06:30:23;101226.44;;;24.61;49.22
70555;BME280;58104;52.744;15.242;2023-08-12T06:32:48;101227.16;;;24.54;49.25
70555;BME280;58104;52.744;15.242;2023-08-12T06:35:14;101230.36;;;24.62;49.29
70555;BME280;58104;52.744;15.242;2023-08-12T06:37:39;101235.45;;;24.71;49.07
70555;BME280;58104;52.744;15.242;2023-08-12T06:40:06;101235.99;;;24.70;49.02
70555;BME280;58104;52.744;15.242;2023-08-12T06:42:30;101231.13;;;24.65;49.28
70555;BME280;58104;52.744;15.242;2023-08-12T06:44:56;101224.89;;;24.59;49.38
70555;BME280;58104;52.744;15.242;2023-08-12T06:47:20;101225.64;;;24.73;49.35
70555;BME280;58104;52.744;15.242;2023-08-12T06:49:46;101222.39;;;24.72;49.24
70555;BME280;58104;52.744;15.242;2023-08-12T06:52:11;101220.73;;;24.82;49.00
70555;BME280;58104;52.744;15.242;2023-08-12T06:54:36;101223.42;;;24.91;48.75
70555;BME280;58104;52.744;15.242;2023-08-12T06:57:02;101219.87;;;25.02;48.40
70555;BME280;58104;52.744;15.242;2023-08-12T06:59:27;101210.96;;;25.11;48.23
70555;BME280;58104;52.744;15.242;2023-08-12T07:01:52;101207.10;;;25.07;48.11
70555;BME280;58104;52.744;15.242;2023-08-12T07:04:18;101210.77;;;25.18;47.97
70555;BME280;58104;52.744;15.242;2023-08-12T07:06:43;101210.59;;;25.27;47.85
70555;BME280;58104;52.744;15.242;2023-08-12T07:09:08;101204.44;;;25.32;47.73
70555;BME280;58104;52.744;15.242;2023-08-12T07:11:34;101197.62;;;25.26;47.69
70555;BME280;58104;52.744;15.242;2023-08-12T07:13:59;101197.37;;;25.33;47.54
70555;BME280;58104;52.744;15.242;2023-08-12T07:16:25;101200.85;;;25.30;47.60
70555;BME280;58104;52.744;15.242;2023-08-12T07:18:50;101202.18;;;25.19;47.80
70555;BME280;58104;52.744;15.242;2023-08-12T07:21:15;101203.51;;;25.22;47.62
70555;BME280;58104;52.744;15.242;2023-08-12T07:23:41;101205.51;;;25.22;47.74
70555;BME280;58104;52.744;15.242;2023-08-12T07:26:06;101199.36;;;25.26;47.64
70555;BME280;58104;52.744;15.242;2023-08-12T07:28:31;101198.29;;;25.32;47.62
70555;BME280;58104;52.744;15.242;2023-08-12T07:30:56;101197.29;;;25.27;47.62
70555;BME280;58104;52.744;15.242;2023-08-12T07:33:22;101195.03;;;25.34;47.40
70555;BME280;58104;52.744;15.242;2023-08-12T07:35:47;101195.60;;;25.34;47.52
70555;BME280;58104;52.744;15.242;2023-08-12T07:38:12;101194.58;;;25.27;47.46
70555;BME280;58104;52.744;15.242;2023-08-12T07:40:38;101195.48;;;25.33;47.56
70555;BME280;58104;52.744;15.242;2023-08-12T07:43:03;101194.64;;;25.23;47.79
70555;BME280;58104;52.744;15.242;2023-08-12T07:45:29;101193.14;;;25.10;47.82
70555;BME280;58104;52.744;15.242;2023-08-12T07:47:54;101195.57;;;25.27;47.53
70555;BME280;58104;52.744;15.242;2023-08-12T07:50:19;101199.20;;;25.32;47.31
70555;BME280;58104;52.744;15.242;2023-08-12T07:52:44;101199.93;;;25.24;47.45
70555;BME280;58104;52.744;15.242;2023-08-12T07:55:10;101198.97;;;25.28;47.46
70555;BME280;58104;52.744;15.242;2023-08-12T07:57:36;101194.79;;;25.41;47.45
70555;BME280;58104;52.744;15.242;2023-08-12T08:00:00;101190.84;;;25.33;47.42
70555;BME280;58104;52.744;15.242;2023-08-12T08:02:26;101185.90;;;25.26;47.39
70555;BME280;58104;52.744;15.242;2023-08-12T08:04:51;101183.66;;;25.28;47.62
70555;BME280;58104;52.744;15.242;2023-08-12T08:07:17;101183.45;;;25.30;47.34
70555;BME280;58104;52.744;15.242;2023-08-12T08:09:42;101184.91;;;25.44;47.20
70555;BME280;58104;52.744;15.242;2023-08-12T08:12:08;101185.48;;;25.38;47.25
70555;BME280;58104;52.744;15.242;2023-08-12T08:14:32;101185.73;;;25.33;47.44
70555;BME280;58104;52.744;15.242;2023-08-12T08:16:58;101182.09;;;25.31;47.48
70555;BME280;58104;52.744;15.242;2023-08-12T08:19:24;101182.94;;;25.37;47.29
70555;BME280;58104;52.744;15.242;2023-08-12T08:21:48;101184.22;;;25.35;47.54
70555;BME280;58104;52.744;15.242;2023-08-12T08:24:14;101184.83;;;25.41;47.26
70555;BME280;58104;52.744;15.242;2023-08-12T08:26:39;101180.52;;;25.49;47.43
70555;BME280;58104;52.744;15.242;2023-08-12T08:29:05;101179.59;;;25.37;47.35
70555;BME280;58104;52.744;15.242;2023-08-12T08:31:30;101180.98;;;25.48;47.19
70555;BME280;58104;52.744;15.242;2023-08-12T08:33:55;101182.15;;;25.41;47.32
70555;BME280;58104;52.744;15.242;2023-08-12T08:36:21;101183.17;;;25.50;47.05
70555;BME280;58104;52.744;15.242;2023-08-12T08:38:46;101183.47;;;25.46;47.15
70555;BME280;58104;52.744;15.242;2023-08-12T08:41:12;101182.61;;;25.38;47.38
70555;BME280;58104;52.744;15.242;2023-08-12T08:43:37;101183.79;;;25.49;47.24
70555;BME280;58104;52.744;15.242;2023-08-12T08:46:02;101183.22;;;25.50;47.08
70555;BME280;58104;52.744;15.242;2023-08-12T08:48:27;101179.99;;;25.52;47.19
70555;BME280;58104;52.744;15.242;2023-08-12T08:50:53;101177.60;;;25.51;47.26
70555;BME280;58104;52.744;15.242;2023-08-12T08:53:18;101175.36;;;25.64;46.93
70555;BME280;58104;52.744;15.242;2023-08-12T08:55:44;101180.41;;;25.54;47.20
70555;BME280;58104;52.744;15.242;2023-08-12T08:58:09;101183.58;;;25.63;47.16
70555;BME280;58104;52.744;15.242;2023-08-12T09:00:35;101190.11;;;25.66;47.10
70555;BME280;58104;52.744;15.242;2023-08-12T09:03:00;101186.39;;;25.61;47.18
70555;BME280;58104;52.744;15.242;2023-08-12T09:05:25;101179.37;;;25.68;47.03
70555;BME280;58104;52.744;15.242;2023-08-12T09:07:51;101178.12;;;25.55;47.29
70555;BME280;58104;52.744;15.242;2023-08-12T09:10:17;101178.58;;;25.55;47.32
70555;BME280;58104;52.744;15.242;2023-08-12T09:12:41;101173.50;;;25.58;47.28
70555;BME280;58104;52.744;15.242;2023-08-12T09:15:06;101169.15;;;25.62;47.31
70555;BME280;58104;52.744;15.242;2023-08-12T09:17:31;101164.86;;;25.67;47.31
70555;BME280;58104;52.744;15.242;2023-08-12T09:19:56;101164.16;;;25.61;47.49
70555;BME280;58104;52.744;15.242;2023-08-12T09:22:24;101164.55;;;25.69;47.26
70555;BME280;58104;52.744;15.242;2023-08-12T09:24:50;101165.25;;;25.64;47.33
70555;BME280;58104;52.744;15.242;2023-08-12T09:27:17;101162.81;;;25.71;47.35
70555;BME280;58104;52.744;15.242;2023-08-12T09:29:38;101156.49;;;25.64;47.32
70555;BME280;58104;52.744;15.242;2023-08-12T09:32:10;101152.63;;;25.71;47.17
70555;BME280;58104;52.744;15.242;2023-08-12T09:34:29;101149.81;;;25.67;47.48
70555;BME280;58104;52.744;15.242;2023-08-12T09:36:54;101143.83;;;25.64;47.43
70555;BME280;58104;52.744;15.242;2023-08-12T09:39:19;101138.78;;;25.67;47.42
70555;BME280;58104;52.744;15.242;2023-08-12T09:41:45;101139.57;;;25.77;46.55
70555;BME280;58104;52.744;15.242;2023-08-12T09:44:10;101139.54;;;25.75;46.77
70555;BME280;58104;52.744;15.242;2023-08-12T09:46:35;101138.47;;;25.79;46.28
70555;BME280;58104;52.744;15.242;2023-08-12T09:49:00;101141.69;;;25.63;46.43
70555;BME280;58104;52.744;15.242;2023-08-12T09:51:25;101137.80;;;25.72;45.24
70555;BME280;58104;52.744;15.242;2023-08-12T09:53:51;101138.14;;;25.81;45.02
70555;BME280;58104;52.744;15.242;2023-08-12T09:56:18;101137.75;;;25.68;45.14
70555;BME280;58104;52.744;15.242;2023-08-12T09:58:41;101132.57;;;25.72;44.81
70555;BME280;58104;52.744;15.242;2023-08-12T10:01:06;101131.76;;;25.73;44.50
70555;BME280;58104;52.744;15.242;2023-08-12T10:03:33;101129.47;;;25.64;44.76
70555;BME280;58104;52.744;15.242;2023-08-12T10:05:57;101129.24;;;25.57;44.43
70555;BME280;58104;52.744;15.242;2023-08-12T10:08:22;101127.19;;;25.58;44.32
70555;BME280;58104;52.744;15.242;2023-08-12T10:10:47;101120.47;;;25.58;44.22
70555;BME280;58104;52.744;15.242;2023-08-12T10:13:13;101119.46;;;25.73;43.50
70555;BME280;58104;52.744;15.242;2023-08-12T10:15:38;101113.41;;;25.74;43.53
70555;BME280;58104;52.744;15.242;2023-08-12T10:18:04;101116.62;;;25.66;43.69
70555;BME280;58104;52.744;15.242;2023-08-12T10:20:29;101116.26;;;25.68;43.68
70555;BME280;58104;52.744;15.242;2023-08-12T10:22:54;101115.31;;;25.87;43.62
70555;BME280;58104;52.744;15.242;2023-08-12T10:25:20;101108.15;;;26.01;43.36
70555;BME280;58104;52.744;15.242;2023-08-12T10:27:45;101112.71;;;26.14;43.34
70555;BME280;58104;52.744;15.242;2023-08-12T10:30:13;101110.86;;;26.20;43.64
70555;BME280;58104;52.744;15.242;2023-08-12T10:32:36;101107.65;;;26.02;43.90
70555;BME280;58104;52.744;15.242;2023-08-12T10:35:01;101116.54;;;26.63;48.88
70555;BME280;58104;52.744;15.242;2023-08-12T10:37:27;101110.88;;;26.78;42.39
70555;BME280;58104;52.744;15.242;2023-08-12T10:39:52;101111.22;;;26.97;42.19
70555;BME280;58104;52.744;15.242;2023-08-12T10:44:50;101103.89;;;26.54;43.20
70555;BME280;58104;52.744;15.242;2023-08-12T10:47:08;101102.80;;;26.51;43.30
70555;BME280;58104;52.744;15.242;2023-08-12T10:49:38;101095.46;;;26.06;44.43
70555;BME280;58104;52.744;15.242;2023-08-12T10:51:57;101094.11;;;26.14;44.29
70555;BME280;58104;52.744;15.242;2023-08-12T10:54:24;101090.61;;;26.13;44.14
70555;BME280;58104;52.744;15.242;2023-08-12T11:01:39;101079.19;;;26.09;44.31
70555;BME280;58104;52.744;15.242;2023-08-12T11:06:29;101076.79;;;26.52;43.74
70555;BME280;58104;52.744;15.242;2023-08-12T11:08:56;101072.57;;;26.49;43.87
70555;BME280;58104;52.744;15.242;2023-08-12T11:11:22;101073.01;;;26.47;43.98
70555;BME280;58104;52.744;15.242;2023-08-12T11:13:47;101069.69;;;26.54;44.08
70555;BME280;58104;52.744;15.242;2023-08-12T11:16:11;101069.05;;;26.53;44.12
70555;BME280;58104;52.744;15.242;2023-08-12T11:18:36;101069.14;;;26.27;44.41
70555;BME280;58104;52.744;15.242;2023-08-12T11:21:02;101064.04;;;26.27;44.57
70555;BME280;58104;52.744;15.242;2023-08-12T11:23:27;101059.44;;;26.21;44.62
70555;BME280;58104;52.744;15.242;2023-08-12T11:25:53;101054.72;;;26.28;44.60
70555;BME280;58104;52.744;15.242;2023-08-12T11:28:18;101051.29;;;26.12;45.04
70555;BME280;58104;52.744;15.242;2023-08-12T11:30:43;101046.18;;;26.28;44.88
70555;BME280;58104;52.744;15.242;2023-08-12T11:33:09;101045.70;;;26.13;45.13
70555;BME280;58104;52.744;15.242;2023-08-12T11:35:34;101039.88;;;26.24;45.04
70555;BME280;58104;52.744;15.242;2023-08-12T11:37:59;101035.78;;;26.29;45.07
70555;BME280;58104;52.744;15.242;2023-08-12T11:40:26;101033.68;;;26.36;45.26
70555;BME280;58104;52.744;15.242;2023-08-12T11:42:51;101033.69;;;26.39;45.07
70555;BME280;58104;52.744;15.242;2023-08-12T11:45:17;101029.59;;;26.27;45.70
70555;BME280;58104;52.744;15.242;2023-08-12T11:47:41;101027.44;;;26.26;45.87
70555;BME280;58104;52.744;15.242;2023-08-12T11:50:09;101026.96;;;26.33;45.45
70555;BME280;58104;52.744;15.242;2023-08-12T11:52:33;101024.60;;;26.37;45.27
70555;BME280;58104;52.744;15.242;2023-08-12T11:54:58;101020.40;;;26.42;45.30
70555;BME280;58104;52.744;15.242;2023-08-12T11:57:23;101019.15;;;26.35;45.54
70555;BME280;58104;52.744;15.242;2023-08-12T11:59:48;101017.88;;;26.29;45.49
70555;BME280;58104;52.744;15.242;2023-08-12T12:02:13;101016.11;;;26.33;44.80
70555;BME280;58104;52.744;15.242;2023-08-12T12:04:41;101015.89;;;26.44;44.39
70555;BME280;58104;52.744;15.242;2023-08-12T12:07:17;101008.48;;;26.49;44.09
70555;BME280;58104;52.744;15.242;2023-08-12T12:09:29;101007.97;;;26.58;43.84
70555;BME280;58104;52.744;15.242;2023-08-12T12:11:55;101005.21;;;26.50;43.82
70555;BME280;58104;52.744;15.242;2023-08-12T12:14:21;101001.12;;;26.47;43.54
70555;BME280;58104;52.744;15.242;2023-08-12T12:16:46;101002.03;;;26.40;43.42
70555;BME280;58104;52.744;15.242;2023-08-12T12:19:15;100999.61;;;26.48;43.26
70555;BME280;58104;52.744;15.242;2023-08-12T12:21:39;101002.22;;;26.58;42.44
70555;BME280;58104;52.744;15.242;2023-08-12T12:24:00;100995.45;;;26.52;42.85
70555;BME280;58104;52.744;15.242;2023-08-12T12:26:26;100999.68;;;26.49;43.01
70555;BME280;58104;52.744;15.242;2023-08-12T12:28:51;100991.95;;;26.24;43.87
70555;BME280;58104;52.744;15.242;2023-08-12T12:31:17;100991.94;;;26.41;43.08
70555;BME280;58104;52.744;15.242;2023-08-12T12:33:42;100991.28;;;26.52;43.13
70555;BME280;58104;52.744;15.242;2023-08-12T12:36:07;100990.08;;;26.22;43.50
70555;BME280;58104;52.744;15.242;2023-08-12T12:38:32;100981.59;;;25.98;43.99